Capitol Logistics 1172


EETN
Tallinn Airport
Tallinn, EE
EBLG
Liège Airport
Liege, BE

Route Details

Aircraft Information
Primary: Boeing 767-300BDSF
Backup: Not Available
Route Data
Distance: 856nm
Sched. Duration: 2h 00m
Avg. Duration: 2h 57m (+58m)
Times Flown: 7
Recm'd Route: TLL Q11 PIMEX P739 KOLJA M864 BUMIL OSB
Planned Altitude: 36,000ft
Origin Wx: EETN 290950Z 33008KT 300V360 9999 SCT030 14/03 Q1026 NOSIG
Dest. Wx: EBLG 290950Z 04007KT 330V110 CAVOK 20/04 Q1028 NOSIG
Notes:

Financial History
Total Freight: 651,768lbs
Average Load: 93,110lbs/flt
Fuel Used: 201,626lbs
Avg. Fuel Used: 28,804lbs/flt
Fuel Expense: $161,301
Avg. Fuel Expense: $23,043
Avg. Fuel Cost: $0.80/lbs
Total Gross Income: $951,839
Pilot Pay: $1,243
Total Expenses: $97,280
Total Revenue: $688,814
Average Revenue: $135,977.02